createdAt,value
2022-12-17T00:00:51.596Z,80.63
2022-12-17T00:03:37.819Z,78.90
2022-12-17T00:06:23.550Z,80.40
2022-12-17T00:09:08.789Z,85.85
2022-12-17T00:11:54.175Z,82.65
2022-12-17T00:14:44.432Z,82.15
2022-12-17T00:17:29.757Z,85.60
2022-12-17T00:20:15.148Z,84.28
2022-12-17T00:23:00.464Z,91.53
2022-12-17T00:25:45.912Z,86.45
2022-12-17T00:28:31.701Z,81.32
2022-12-17T00:31:17.091Z,78.00
2022-12-17T00:34:02.428Z,85.32
2022-12-17T00:36:47.665Z,82.03
2022-12-17T00:39:33.002Z,78.43
2022-12-17T00:42:17.928Z,85.55
2022-12-17T00:45:03.281Z,82.57
2022-12-17T00:47:48.948Z,80.53
2022-12-17T00:50:35.724Z,77.03
2022-12-17T00:53:21.157Z,80.60
2022-12-17T00:56:06.387Z,75.95
2022-12-17T00:58:51.812Z,74.50
2022-12-17T01:01:37.216Z,81.45
2022-12-17T01:04:22.684Z,81.93
2022-12-17T01:07:08.730Z,86.10
2022-12-17T01:09:58.221Z,81.90
2022-12-17T01:12:43.449Z,76.10
2022-12-17T01:15:29.583Z,83.72
2022-12-17T01:18:14.805Z,78.60
2022-12-17T01:21:00.082Z,72.82
2022-12-17T01:23:45.462Z,68.05
2022-12-17T01:26:30.737Z,69.03
2022-12-17T01:29:16.458Z,69.10
2022-12-17T01:32:01.797Z,75.78
2022-12-17T01:34:47.191Z,63.65
2022-12-17T01:37:32.517Z,70.30
2022-12-17T01:40:17.857Z,67.30
2022-12-17T01:43:06.292Z,61.15
2022-12-17T01:46:00.685Z,59.30
2022-12-17T01:48:59.593Z,61.63
2022-12-17T01:51:45.440Z,63.30
2022-12-17T01:54:31.265Z,53.95
2022-12-17T01:57:17.160Z,60.70
2022-12-17T02:00:19.278Z,54.85
2022-12-17T02:03:05.033Z,54.88
2022-12-17T02:05:56.870Z,57.85
2022-12-17T02:08:54.235Z,52.38
2022-12-17T02:11:56.597Z,53.58
2022-12-17T02:14:50.164Z,46.35
2022-12-17T02:17:40.590Z,41.42
2022-12-17T02:20:49.745Z,39.90
2022-12-17T02:23:56.665Z,41.47
2022-12-17T02:26:54.508Z,32.65
2022-12-17T02:29:41.541Z,36.03
2022-12-17T02:32:28.292Z,33.88
2022-12-17T02:35:13.777Z,36.42
2022-12-17T02:38:05.368Z,31.80
2022-12-17T02:40:56.887Z,29.75
2022-12-17T02:43:43.042Z,28.35
2022-12-17T02:46:28.917Z,30.33
2022-12-17T02:49:27.840Z,29.67
2022-12-17T02:52:13.290Z,27.58
2022-12-17T02:54:58.583Z,30.17
2022-12-17T02:58:01.101Z,31.17
2022-12-17T03:00:46.474Z,28.85
2022-12-17T03:03:31.917Z,30.98
2022-12-17T03:06:17.417Z,24.83
2022-12-17T03:09:02.837Z,26.13
2022-12-17T03:11:48.875Z,28.92
2022-12-17T03:14:34.627Z,24.58
2022-12-17T03:17:19.954Z,28.33
2022-12-17T03:20:05.350Z,28.30
2022-12-17T03:22:50.832Z,27.92
2022-12-17T03:25:36.139Z,24.63
2022-12-17T03:28:23.354Z,26.30
2022-12-17T03:31:08.776Z,27.40
2022-12-17T03:33:54.144Z,25.42
2022-12-17T03:36:39.483Z,22.85
2022-12-17T03:39:24.804Z,25.02
2022-12-17T03:42:10.052Z,25.33
2022-12-17T03:44:55.445Z,22.58
2022-12-17T03:47:40.613Z,23.67
2022-12-17T03:50:26.434Z,24.50
2022-12-17T03:53:11.763Z,24.45
2022-12-17T03:55:57.006Z,20.85
2022-12-17T03:58:42.360Z,24.95
2022-12-17T04:01:27.752Z,25.35
2022-12-17T04:04:13.175Z,22.10
2022-12-17T04:06:58.605Z,25.73
2022-12-17T04:09:43.958Z,22.98
2022-12-17T04:12:29.217Z,22.45
2022-12-17T04:15:14.524Z,21.92
2022-12-17T04:18:00.141Z,20.83
2022-12-17T04:20:45.382Z,22.33
2022-12-17T04:23:30.744Z,22.60
2022-12-17T04:26:15.910Z,19.48
2022-12-17T04:29:01.067Z,20.48
2022-12-17T04:32:00.105Z,21.45
2022-12-17T04:34:45.392Z,25.33
2022-12-17T04:37:30.834Z,22.08
2022-12-17T04:40:16.079Z,23.58
2022-12-17T04:43:01.432Z,26.23
2022-12-17T04:45:46.669Z,24.60
2022-12-17T04:48:32.037Z,21.38
2022-12-17T04:51:17.316Z,21.85
2022-12-17T04:54:02.536Z,24.27
2022-12-17T04:56:47.940Z,25.42
2022-12-17T04:59:33.107Z,24.20
2022-12-17T05:02:18.651Z,25.90
2022-12-17T05:05:03.943Z,22.27
2022-12-17T05:07:49.401Z,25.27
2022-12-17T05:10:34.622Z,25.27
2022-12-17T05:13:20.542Z,23.80
2022-12-17T05:16:05.909Z,26.02
2022-12-17T05:18:51.154Z,26.25
2022-12-17T05:21:36.466Z,24.27
2022-12-17T05:24:21.846Z,28.45
2022-12-17T05:27:07.275Z,28.23
2022-12-17T05:29:52.536Z,24.33
2022-12-17T05:32:37.847Z,32.70
2022-12-17T05:35:27.612Z,27.67
2022-12-17T05:38:22.901Z,29.92
2022-12-17T05:41:08.286Z,28.40
2022-12-17T05:43:53.531Z,28.98
2022-12-17T05:46:38.857Z,30.98
2022-12-17T05:49:27.420Z,30.92
2022-12-17T05:52:12.692Z,29.65
2022-12-17T05:54:58.200Z,28.17
2022-12-17T05:57:43.641Z,31.88
2022-12-17T06:00:29.311Z,34.28
2022-12-17T06:03:22.747Z,27.58
2022-12-17T06:06:13.019Z,29.20
2022-12-17T06:08:58.360Z,30.98
2022-12-17T06:11:43.742Z,28.73
2022-12-17T06:14:29.167Z,30.17
2022-12-17T06:17:14.601Z,30.77
2022-12-17T06:19:59.782Z,27.50
2022-12-17T06:22:48.020Z,33.47
2022-12-17T06:25:33.275Z,30.48
2022-12-17T06:28:19.492Z,32.83
2022-12-17T06:31:12.113Z,32.97
2022-12-17T06:33:58.087Z,33.33
2022-12-17T06:36:43.934Z,31.63
2022-12-17T06:39:29.488Z,29.70
2022-12-17T06:42:14.785Z,29.15
2022-12-17T06:45:00.030Z,26.08
2022-12-17T06:47:45.177Z,25.67
2022-12-17T06:50:30.351Z,26.52
2022-12-17T06:53:23.696Z,28.02
2022-12-17T06:56:08.999Z,26.65
2022-12-17T06:58:54.413Z,27.25
2022-12-17T07:01:39.783Z,26.20
2022-12-17T07:04:25.322Z,27.05
2022-12-17T07:07:13.139Z,29.75
2022-12-17T07:09:59.149Z,30.58
2022-12-17T07:12:44.409Z,32.70
2022-12-17T07:15:29.813Z,28.58
2022-12-17T07:18:20.176Z,28.27
2022-12-17T07:21:06.624Z,29.55
2022-12-17T07:23:55.143Z,33.95
2022-12-17T07:26:40.256Z,33.67
2022-12-17T07:29:25.774Z,30.58
2022-12-17T07:32:11.062Z,31.33
2022-12-17T07:34:56.657Z,28.73
2022-12-17T07:37:49.508Z,31.90
2022-12-17T07:40:34.951Z,28.95
2022-12-17T07:43:20.233Z,29.05
2022-12-17T07:46:05.607Z,27.83
2022-12-17T07:48:50.914Z,30.40
2022-12-17T07:51:36.123Z,32.15
2022-12-17T07:54:21.475Z,25.48
2022-12-17T07:57:06.672Z,32.13
2022-12-17T07:59:52.105Z,30.13
2022-12-17T08:02:37.644Z,30.77
2022-12-17T08:05:23.165Z,31.10
2022-12-17T08:08:11.460Z,28.85
2022-12-17T08:10:56.709Z,31.15
2022-12-17T08:13:42.103Z,30.70
2022-12-17T08:16:27.503Z,29.65
2022-12-17T08:19:12.802Z,24.77
2022-12-17T08:21:58.138Z,25.30
2022-12-17T08:24:43.373Z,28.65
2022-12-17T08:27:28.756Z,29.05
2022-12-17T08:30:14.065Z,30.63
2022-12-17T08:32:59.389Z,30.33
2022-12-17T08:35:44.682Z,37.53
2022-12-17T08:38:30.081Z,29.17
2022-12-17T08:41:15.536Z,28.33
2022-12-17T08:44:00.917Z,33.60
2022-12-17T08:46:46.218Z,31.85
2022-12-17T08:49:31.460Z,30.02
2022-12-17T08:52:16.664Z,32.58
2022-12-17T08:55:01.955Z,30.50
2022-12-17T08:57:47.181Z,31.65
2022-12-17T09:00:33.078Z,31.25
2022-12-17T09:03:19.408Z,31.13
2022-12-17T09:06:05.401Z,33.03
2022-12-17T09:08:51.297Z,33.10
2022-12-17T09:11:36.662Z,35.20
2022-12-17T09:14:22.039Z,39.05
2022-12-17T09:17:07.672Z,37.17
2022-12-17T09:19:52.977Z,38.88
2022-12-17T09:22:38.567Z,34.88
2022-12-17T09:25:24.314Z,39.17
2022-12-17T09:28:09.674Z,38.33
2022-12-17T09:30:54.886Z,40.55
2022-12-17T09:33:42.844Z,39.67
2022-12-17T09:36:28.736Z,39.60
2022-12-17T09:39:14.313Z,40.78
2022-12-17T09:42:05.627Z,44.53
2022-12-17T09:45:03.831Z,43.58
2022-12-17T09:48:08.052Z,44.63
2022-12-17T09:50:53.468Z,41.97
2022-12-17T09:53:47.554Z,49.40
2022-12-17T09:56:33.953Z,46.83
2022-12-17T09:59:19.183Z,46.63
2022-12-17T10:02:04.734Z,41.30
2022-12-17T10:04:57.284Z,43.15
2022-12-17T10:07:45.246Z,44.50
2022-12-17T10:10:40.338Z,40.67
2022-12-17T10:13:37.798Z,39.58
2022-12-17T10:16:54.836Z,43.15
2022-12-17T10:19:47.792Z,42.00
2022-12-17T10:22:38.895Z,42.22
2022-12-17T10:25:38.182Z,43.50
2022-12-17T10:28:33.656Z,50.47
2022-12-17T10:31:20.036Z,44.95
2022-12-17T10:34:05.319Z,42.78
2022-12-17T10:36:50.700Z,44.55
2022-12-17T10:39:42.431Z,41.83
2022-12-17T10:42:47.866Z,38.65
2022-12-17T10:45:37.235Z,40.97
2022-12-17T10:48:22.847Z,44.85
2022-12-17T10:51:08.127Z,44.05
2022-12-17T10:53:53.586Z,44.78
2022-12-17T10:56:45.004Z,41.38
2022-12-17T10:59:31.911Z,42.35
2022-12-17T11:02:17.460Z,39.22
2022-12-17T11:05:12.065Z,41.47
2022-12-17T11:08:00.484Z,42.22
2022-12-17T11:10:48.858Z,43.03
2022-12-17T11:13:44.055Z,46.83
2022-12-17T11:16:37.204Z,43.35
2022-12-17T11:19:28.764Z,45.72
2022-12-17T11:22:17.143Z,43.35
2022-12-17T11:25:24.672Z,46.53
2022-12-17T11:28:22.540Z,42.67
2022-12-17T11:31:14.691Z,46.92
2022-12-17T11:34:14.787Z,50.80
2022-12-17T11:37:16.869Z,45.05
2022-12-17T11:40:11.258Z,52.17
2022-12-17T11:43:02.957Z,47.25
2022-12-17T11:45:53.003Z,43.17
2022-12-17T11:48:52.618Z,48.05
2022-12-17T11:51:45.339Z,47.85
2022-12-17T11:54:36.240Z,45.83
2022-12-17T11:57:43.654Z,49.50
2022-12-17T12:00:36.031Z,50.72
2022-12-17T12:03:43.751Z,47.75
2022-12-17T12:06:37.185Z,46.28
2022-12-17T12:09:31.751Z,42.75
2022-12-17T12:12:37.424Z,42.83
2022-12-17T12:15:50.193Z,42.72
2022-12-17T12:19:01.221Z,39.63
2022-12-17T12:21:53.926Z,42.10
2022-12-17T12:25:01.039Z,41.75
2022-12-17T12:27:55.476Z,46.03
2022-12-17T12:30:43.495Z,47.30
2022-12-17T12:33:41.821Z,49.17
2022-12-17T12:36:29.724Z,42.00
2022-12-17T12:39:18.285Z,44.70
2022-12-17T12:42:07.688Z,44.45
2022-12-17T12:44:55.932Z,47.22
2022-12-17T12:47:53.100Z,45.42
2022-12-17T12:50:43.411Z,46.95
2022-12-17T12:53:30.826Z,47.03
2022-12-17T12:56:16.127Z,52.95
2022-12-17T12:59:01.309Z,45.28
2022-12-17T13:01:57.152Z,44.30
2022-12-17T13:04:53.108Z,48.42
2022-12-17T13:07:24.539Z,48.88
2022-12-17T13:09:54.875Z,48.38
2022-12-17T13:12:45.816Z,48.58
2022-12-17T13:15:26.040Z,50.67
2022-12-17T13:18:05.388Z,45.70
2022-12-17T13:20:34.040Z,43.97
2022-12-17T13:23:09.808Z,47.17
2022-12-17T13:25:36.658Z,53.90
2022-12-17T13:28:03.862Z,45.47
2022-12-17T13:30:37.849Z,45.67
2022-12-17T13:33:44.881Z,48.78
2022-12-17T13:36:20.764Z,43.50
2022-12-17T13:38:59.037Z,47.35
2022-12-17T13:41:34.347Z,52.40
2022-12-17T13:44:18.366Z,46.03
2022-12-17T13:46:48.034Z,41.75
2022-12-17T13:49:26.267Z,45.38
2022-12-17T13:52:11.177Z,43.67
2022-12-17T13:54:38.398Z,47.65
2022-12-17T13:57:10.286Z,46.80
2022-12-17T13:59:37.052Z,46.20
2022-12-17T14:02:05.109Z,45.45
2022-12-17T14:04:32.598Z,46.92
2022-12-17T14:07:02.755Z,50.53
2022-12-17T14:09:39.884Z,50.08
2022-12-17T14:12:22.404Z,51.63
2022-12-17T14:15:00.183Z,46.03
2022-12-17T14:17:28.794Z,47.85
2022-12-17T14:20:05.778Z,47.00
2022-12-17T14:22:40.321Z,48.80
2022-12-17T14:25:16.835Z,51.35
2022-12-17T14:27:53.400Z,48.83
2022-12-17T14:30:21.720Z,48.58
2022-12-17T14:32:48.759Z,50.92
2022-12-17T14:35:27.314Z,57.72
2022-12-17T14:37:54.157Z,51.75
2022-12-17T14:40:21.486Z,55.15
2022-12-17T14:42:48.448Z,54.85
2022-12-17T14:45:14.973Z,50.25
2022-12-17T14:47:55.796Z,53.90
2022-12-17T14:50:22.560Z,54.70
2022-12-17T14:52:54.032Z,55.95
2022-12-17T14:55:22.625Z,58.45
2022-12-17T14:57:50.672Z,58.47
2022-12-17T15:00:17.477Z,59.90
2022-12-17T15:02:45.066Z,56.78
2022-12-17T15:05:15.922Z,54.97
2022-12-17T15:07:42.856Z,52.05
2022-12-17T15:10:14.922Z,60.65
2022-12-17T15:12:43.231Z,50.60
2022-12-17T15:15:14.758Z,57.65
2022-12-17T15:17:41.941Z,57.42
2022-12-17T15:20:16.908Z,59.42
2022-12-17T15:22:45.219Z,55.28
2022-12-17T15:25:17.123Z,55.53
2022-12-17T15:27:44.055Z,52.65
2022-12-17T15:30:15.739Z,51.63
2022-12-17T15:32:42.727Z,49.90
2022-12-17T15:35:11.583Z,54.78
2022-12-17T15:37:38.591Z,60.30
2022-12-17T15:40:06.788Z,50.90
2022-12-17T15:42:52.239Z,56.13
2022-12-17T15:45:19.589Z,44.85
2022-12-17T15:47:46.475Z,44.47
2022-12-17T15:50:13.140Z,45.95
2022-12-17T15:52:40.054Z,49.33
2022-12-17T15:55:07.201Z,49.00
2022-12-17T15:57:33.863Z,48.60
2022-12-17T16:00:00.577Z,47.67
2022-12-17T16:02:27.425Z,47.72
2022-12-17T16:04:54.231Z,49.72
2022-12-17T16:07:20.886Z,53.83
2022-12-17T16:09:47.616Z,48.08
2022-12-17T16:12:14.333Z,49.25
2022-12-17T16:14:41.032Z,54.65
2022-12-17T16:17:07.916Z,50.95
2022-12-17T16:19:34.603Z,61.00
2022-12-17T16:22:01.229Z,51.40
2022-12-17T16:24:27.986Z,55.25
2022-12-17T16:26:57.117Z,53.00
2022-12-17T16:29:26.181Z,54.30
2022-12-17T16:31:53.158Z,54.55
2022-12-17T16:34:19.871Z,53.90
2022-12-17T16:36:46.588Z,54.60
2022-12-17T16:39:16.606Z,47.83
2022-12-17T16:41:45.005Z,53.85
2022-12-17T16:44:11.759Z,59.10
2022-12-17T16:46:40.263Z,54.60
2022-12-17T16:49:09.145Z,56.13
2022-12-17T16:51:36.282Z,49.40
2022-12-17T16:54:09.108Z,52.70
2022-12-17T16:56:39.872Z,49.83
2022-12-17T16:59:08.415Z,54.67
2022-12-17T17:01:36.141Z,51.60
2022-12-17T17:04:04.825Z,59.50
2022-12-17T17:06:33.816Z,53.95
2022-12-17T17:09:04.365Z,51.60
2022-12-17T17:11:31.352Z,51.08
2022-12-17T17:13:58.382Z,48.58
2022-12-17T17:16:25.806Z,62.35
2022-12-17T17:18:53.673Z,49.50
2022-12-17T17:21:20.300Z,48.20
2022-12-17T17:23:59.862Z,50.05
2022-12-17T17:26:27.764Z,54.35
2022-12-17T17:28:54.681Z,48.70
2022-12-17T17:31:22.062Z,46.42
2022-12-17T17:33:50.584Z,46.33
2022-12-17T17:36:19.934Z,42.30
2022-12-17T17:38:47.563Z,38.80
2022-12-17T17:41:19.997Z,38.25
2022-12-17T17:43:47.036Z,40.17
2022-12-17T17:46:15.864Z,37.58
2022-12-17T17:48:44.280Z,36.88
2022-12-17T17:51:21.327Z,40.10
2022-12-17T17:53:57.007Z,45.38
2022-12-17T17:56:34.380Z,49.30
2022-12-17T17:59:06.034Z,42.78
2022-12-17T18:01:37.218Z,42.35
2022-12-17T18:04:05.540Z,44.67
2022-12-17T18:06:32.749Z,42.45
2022-12-17T18:09:00.077Z,44.78
2022-12-17T18:11:29.119Z,47.85
2022-12-17T18:13:57.332Z,42.40
2022-12-17T18:16:26.638Z,44.90
2022-12-17T18:18:55.315Z,49.53
2022-12-17T18:21:25.533Z,43.20
2022-12-17T18:23:56.773Z,43.15
2022-12-17T18:26:24.660Z,38.28
2022-12-17T18:28:51.551Z,46.00
2022-12-17T18:31:23.827Z,45.67
2022-12-17T18:33:52.853Z,49.25
2022-12-17T18:36:22.404Z,50.85
2022-12-17T18:38:55.731Z,47.72
2022-12-17T18:41:44.794Z,49.20
2022-12-17T18:44:13.228Z,51.38
2022-12-17T18:46:40.082Z,48.92
2022-12-17T18:49:10.566Z,48.22
2022-12-17T18:51:38.999Z,50.55
2022-12-17T18:54:09.525Z,41.25
2022-12-17T18:57:00.506Z,44.33
2022-12-17T18:59:29.060Z,42.80
2022-12-17T19:01:56.763Z,46.10
2022-12-17T19:04:24.497Z,48.85
2022-12-17T19:06:53.765Z,49.70
2022-12-17T19:09:21.808Z,47.55
2022-12-17T19:11:49.248Z,46.55
2022-12-17T19:14:17.452Z,45.10
2022-12-17T19:16:44.902Z,46.33
2022-12-17T19:19:12.702Z,47.70
2022-12-17T19:21:39.793Z,46.60
2022-12-17T19:24:08.201Z,46.92
2022-12-17T19:26:35.027Z,49.83
2022-12-17T19:29:02.305Z,50.75
2022-12-17T19:31:32.634Z,46.53
2022-12-17T19:34:02.564Z,50.38
2022-12-17T19:36:32.936Z,51.50
2022-12-17T19:39:02.988Z,42.75
2022-12-17T19:41:32.021Z,46.45
2022-12-17T19:44:01.603Z,43.63
2022-12-17T19:46:29.395Z,40.80
2022-12-17T19:48:57.294Z,44.78
2022-12-17T19:51:26.399Z,44.03
2022-12-17T19:53:54.217Z,42.00
2022-12-17T19:56:27.979Z,41.42
2022-12-17T19:58:57.177Z,40.42
2022-12-17T20:01:35.440Z,38.63
2022-12-17T20:04:02.662Z,37.40
2022-12-17T20:06:31.796Z,36.42
2022-12-17T20:08:59.414Z,40.33
2022-12-17T20:11:36.025Z,42.67
2022-12-17T20:14:13.713Z,36.78
2022-12-17T20:16:49.388Z,37.38
2022-12-17T20:19:18.563Z,33.85
2022-12-17T20:21:45.388Z,33.92
2022-12-17T20:24:12.444Z,29.58
2022-12-17T20:26:39.509Z,31.33
2022-12-17T20:29:07.198Z,33.03
2022-12-17T20:31:34.476Z,33.13
2022-12-17T20:34:02.278Z,33.55
2022-12-17T20:36:29.655Z,34.30
2022-12-17T20:38:56.607Z,38.80
2022-12-17T20:41:25.462Z,36.78
2022-12-17T20:43:53.072Z,37.00
2022-12-17T20:46:20.889Z,41.65
2022-12-17T20:48:47.892Z,44.58
2022-12-17T20:51:23.093Z,44.65
2022-12-17T20:53:50.320Z,43.75
2022-12-17T20:56:19.583Z,41.95
2022-12-17T20:58:46.680Z,37.13
2022-12-17T21:01:19.912Z,39.15
2022-12-17T21:03:47.771Z,45.78
2022-12-17T21:06:38.547Z,45.70
2022-12-17T21:09:06.349Z,42.95
2022-12-17T21:11:34.489Z,42.88
2022-12-17T21:14:10.140Z,41.33
2022-12-17T21:16:39.276Z,46.58
2022-12-17T21:19:08.906Z,39.60
2022-12-17T21:21:39.350Z,54.45
2022-12-17T21:24:06.784Z,44.33
2022-12-17T21:26:39.802Z,46.67
2022-12-17T21:29:08.405Z,40.38
2022-12-17T21:31:44.269Z,42.13
2022-12-17T21:34:14.294Z,43.53
2022-12-17T21:36:41.323Z,43.72
2022-12-17T21:39:09.888Z,41.83
2022-12-17T21:41:42.330Z,44.70
2022-12-17T21:44:13.144Z,42.38
2022-12-17T21:46:42.457Z,51.42
2022-12-17T21:49:09.986Z,44.58
2022-12-17T21:51:36.949Z,48.92
2022-12-17T21:54:08.741Z,48.13
2022-12-17T21:56:37.258Z,48.83
2022-12-17T21:59:04.249Z,49.88
2022-12-17T22:01:33.306Z,46.92
2022-12-17T22:04:02.049Z,50.45
2022-12-17T22:06:37.623Z,54.35
2022-12-17T22:09:16.766Z,51.92
2022-12-17T22:12:13.015Z,47.58
2022-12-17T22:14:39.681Z,48.85
2022-12-17T22:17:06.479Z,49.55
2022-12-17T22:19:33.633Z,52.30
2022-12-17T22:22:00.629Z,53.92
2022-12-17T22:24:29.956Z,46.00
2022-12-17T22:27:03.363Z,52.10
2022-12-17T22:29:49.198Z,49.33
2022-12-17T22:32:34.358Z,50.88
2022-12-17T22:35:49.919Z,54.33
2022-12-17T22:40:07.632Z,53.67
2022-12-17T22:44:33.645Z,54.15
2022-12-17T22:44:42.607Z,55.35
2022-12-17T22:46:19.344Z,46.42
2022-12-17T22:48:46.552Z,51.35
2022-12-17T22:51:22.777Z,50.08
2022-12-17T22:54:00.938Z,49.58
2022-12-17T22:56:46.291Z,50.10
2022-12-17T22:59:16.903Z,50.22
2022-12-17T23:01:44.283Z,53.05
2022-12-17T23:04:16.201Z,58.00
2022-12-17T23:06:48.070Z,56.20
2022-12-17T23:09:16.041Z,56.53
2022-12-17T23:11:42.831Z,55.88
2022-12-17T23:14:09.544Z,53.00
2022-12-17T23:16:38.455Z,55.40
2022-12-17T23:19:05.710Z,58.05
2022-12-17T23:21:35.982Z,56.75
2022-12-17T23:24:04.400Z,56.75
2022-12-17T23:26:33.582Z,56.25
2022-12-17T23:29:02.889Z,59.65
2022-12-17T23:31:33.487Z,57.17
2022-12-17T23:34:00.457Z,62.53
2022-12-17T23:36:27.574Z,49.33
2022-12-17T23:38:56.429Z,45.97
2022-12-17T23:41:26.999Z,41.95
2022-12-17T23:43:54.004Z,49.00
2022-12-17T23:46:21.384Z,50.42
2022-12-17T23:48:48.486Z,57.03
2022-12-17T23:51:17.432Z,54.63
2022-12-17T23:53:44.164Z,46.20
2022-12-17T23:56:22.540Z,53.03
2022-12-17T23:58:53.108Z,55.40
